Terminal Aerodrome Forecast
Issued by NWS

Home | Current Version | Previous Version | Graphics & Text | Print | Product List | Glossary On
Versions: 1 2 3 4 5 6 7 8 9 10 11 12 13 14 15 16 17 18 19 20 21 22
000
FTUS43 KUNR 160100 AAA
TAFGCC
TAF AMD
KGCC 160117Z 1601/1624 31015KT P6SM BKN100
     FM160900 33020G30KT 3SM -SN BKN015
     FM161200 31020G30KT P6SM -SHSN BKN020=

USA.gov is the U.S. government's official web portal to all federal, state and local government web resources and services.